createdAt,value
2023-04-06T00:00:35.946Z,3.73
2023-04-06T00:01:38.826Z,4.57
2023-04-06T00:02:40.731Z,4.30
2023-04-06T00:03:43.731Z,5.57
2023-04-06T00:04:45.753Z,4.00
2023-04-06T00:05:49.394Z,6.10
2023-04-06T00:06:51.210Z,4.13
2023-04-06T00:07:55.247Z,3.60
2023-04-06T00:08:57.304Z,2.27
2023-04-06T00:10:00.187Z,6.20
2023-04-06T00:11:02.011Z,6.50
2023-04-06T00:12:06.627Z,3.53
2023-04-06T00:13:08.545Z,5.80
2023-04-06T00:14:11.365Z,6.70
2023-04-06T00:15:13.174Z,4.07
2023-04-06T00:16:16.056Z,3.00
2023-04-06T00:17:17.864Z,6.50
2023-04-06T00:18:20.779Z,6.87
2023-04-06T00:19:22.857Z,4.33
2023-04-06T00:20:25.700Z,3.80
2023-04-06T00:21:27.737Z,3.00
2023-04-06T00:22:30.770Z,4.27
2023-04-06T00:23:32.617Z,4.67
2023-04-06T00:24:35.413Z,4.37
2023-04-06T00:25:37.268Z,3.50
2023-04-06T00:26:40.095Z,4.90
2023-04-06T00:27:43.247Z,7.07
2023-04-06T00:28:46.329Z,4.73
2023-04-06T00:29:48.191Z,4.20
2023-04-06T00:30:51.246Z,4.60
2023-04-06T00:31:53.223Z,4.43
2023-04-06T00:32:56.143Z,4.43
2023-04-06T00:33:59.110Z,8.37
2023-04-06T00:35:01.945Z,4.87
2023-04-06T00:36:04.168Z,4.77
2023-04-06T00:37:07.041Z,6.17
2023-04-06T00:38:08.925Z,4.77
2023-04-06T00:39:12.103Z,4.40
2023-04-06T00:40:14.130Z,4.63
2023-04-06T00:41:16.943Z,4.40
2023-04-06T00:42:26.117Z,6.83
2023-04-06T00:43:30.345Z,3.07
2023-04-06T00:44:32.972Z,2.73
2023-04-06T00:45:36.976Z,7.20
2023-04-06T00:46:38.783Z,3.10
2023-04-06T00:47:41.744Z,4.43
2023-04-06T00:48:43.667Z,8.00
2023-04-06T00:49:46.475Z,3.07
2023-04-06T00:50:48.301Z,3.57
2023-04-06T00:51:51.222Z,3.17
2023-04-06T00:52:53.023Z,4.67
2023-04-06T00:53:55.913Z,5.53
2023-04-06T00:54:57.717Z,5.57
2023-04-06T00:56:00.527Z,5.33
2023-04-06T00:57:02.357Z,3.83
2023-04-06T00:58:06.624Z,4.47
2023-04-06T00:59:10.178Z,4.30
2023-04-06T01:00:14.514Z,5.47
2023-04-06T01:01:16.433Z,6.40
2023-04-06T01:02:19.435Z,4.50
2023-04-06T01:03:21.448Z,4.73
2023-04-06T01:04:24.585Z,4.33
2023-04-06T01:05:26.441Z,4.10
2023-04-06T01:06:29.284Z,6.30
2023-04-06T01:07:31.343Z,5.53
2023-04-06T01:08:34.261Z,3.70
2023-04-06T01:09:36.249Z,5.40
2023-04-06T01:10:39.051Z,3.70
2023-04-06T01:11:40.835Z,3.53
2023-04-06T01:12:43.683Z,6.70
2023-04-06T01:13:45.512Z,3.77
2023-04-06T01:14:49.841Z,5.00
2023-04-06T01:15:51.777Z,5.10
2023-04-06T01:16:54.905Z,3.73
2023-04-06T01:17:56.766Z,3.67
2023-04-06T01:18:59.582Z,4.87
2023-04-06T01:20:01.433Z,5.17
2023-04-06T01:21:04.479Z,7.03
2023-04-06T01:22:06.346Z,6.57
2023-04-06T01:23:10.658Z,3.83
2023-04-06T01:24:12.515Z,3.40
2023-04-06T01:25:15.517Z,4.67
2023-04-06T01:26:17.406Z,3.47
2023-04-06T01:27:20.160Z,3.10
2023-04-06T01:28:22.050Z,4.87
2023-04-06T01:29:25.074Z,5.87
2023-04-06T01:30:27.464Z,3.53
2023-04-06T01:31:30.534Z,5.90
2023-04-06T01:32:32.492Z,4.87
2023-04-06T01:33:35.597Z,2.57
2023-04-06T01:34:37.441Z,5.13
2023-04-06T01:35:40.574Z,5.73
2023-04-06T01:36:42.470Z,8.60
2023-04-06T01:37:45.663Z,5.40
2023-04-06T01:38:48.869Z,2.57
2023-04-06T01:39:52.631Z,5.03
2023-04-06T01:40:54.655Z,3.07
2023-04-06T01:41:57.447Z,3.97
2023-04-06T01:42:59.279Z,3.87
2023-04-06T01:44:02.250Z,5.50
2023-04-06T01:45:04.762Z,4.67
2023-04-06T01:46:07.594Z,6.03
2023-04-06T01:47:09.449Z,3.63
2023-04-06T01:48:12.291Z,7.60
2023-04-06T01:49:14.340Z,6.47
2023-04-06T01:50:17.362Z,5.83
2023-04-06T01:51:19.297Z,3.60
2023-04-06T01:52:22.217Z,2.47
2023-04-06T01:53:24.049Z,6.03
2023-04-06T01:54:28.288Z,3.57
2023-04-06T01:55:30.106Z,6.27
2023-04-06T01:56:33.015Z,5.53
2023-04-06T01:57:36.109Z,3.50
2023-04-06T01:58:39.107Z,3.03
2023-04-06T01:59:41.054Z,4.07
2023-04-06T02:00:44.070Z,4.00
2023-04-06T02:01:46.318Z,6.90
2023-04-06T02:02:49.316Z,3.37
2023-04-06T02:03:51.217Z,2.80
2023-04-06T02:04:54.016Z,2.93
2023-04-06T02:05:56.063Z,5.90
2023-04-06T02:06:58.962Z,3.27
2023-04-06T02:08:00.851Z,5.83
2023-04-06T02:09:03.786Z,4.30
2023-04-06T02:10:12.422Z,4.57
2023-04-06T02:11:15.301Z,2.97
2023-04-06T02:12:17.158Z,2.37
2023-04-06T02:13:19.986Z,2.57
2023-04-06T02:14:21.854Z,3.07
2023-04-06T02:15:24.743Z,3.13
2023-04-06T02:16:26.749Z,4.33
2023-04-06T02:17:29.733Z,3.53
2023-04-06T02:18:33.321Z,4.13
2023-04-06T02:19:35.090Z,8.60
2023-04-06T02:20:37.935Z,3.70
2023-04-06T02:21:39.777Z,5.27
2023-04-06T02:22:42.684Z,3.63
2023-04-06T02:23:44.507Z,3.63
2023-04-06T02:24:47.667Z,3.63
2023-04-06T02:25:51.218Z,4.73
2023-04-06T02:26:54.023Z,5.43
2023-04-06T02:27:56.268Z,3.33
2023-04-06T02:28:59.066Z,4.30
2023-04-06T02:30:01.003Z,5.17
2023-04-06T02:31:04.018Z,2.87
2023-04-06T02:32:06.103Z,3.20
2023-04-06T02:33:08.970Z,3.67
2023-04-06T02:34:13.048Z,1.87
2023-04-06T02:35:15.898Z,6.00
2023-04-06T02:36:17.677Z,3.50
2023-04-06T02:37:20.571Z,7.07
2023-04-06T02:38:22.373Z,5.47
2023-04-06T02:39:25.229Z,3.93
2023-04-06T02:40:27.159Z,2.83
2023-04-06T02:41:31.389Z,3.57
2023-04-06T02:42:33.873Z,3.73
2023-04-06T02:43:36.701Z,3.13
2023-04-06T02:44:38.568Z,2.87
2023-04-06T02:45:41.749Z,3.03
2023-04-06T02:46:43.687Z,4.63
2023-04-06T02:47:47.027Z,4.43
2023-04-06T02:48:48.948Z,3.57
2023-04-06T02:49:51.733Z,3.13
2023-04-06T02:50:53.655Z,4.50
2023-04-06T02:51:56.493Z,3.00
2023-04-06T02:52:58.580Z,2.73
2023-04-06T02:54:01.373Z,8.23
2023-04-06T02:55:03.250Z,4.23
2023-04-06T02:56:06.576Z,4.67
2023-04-06T02:57:09.988Z,3.63
2023-04-06T02:58:12.851Z,3.13
2023-04-06T02:59:14.801Z,5.03
2023-04-06T03:00:18.038Z,4.30
2023-04-06T03:01:19.863Z,4.13
2023-04-06T03:02:22.801Z,7.37
2023-04-06T03:03:24.752Z,3.57
2023-04-06T03:04:27.658Z,3.67
2023-04-06T03:05:29.436Z,3.33
2023-04-06T03:06:32.418Z,3.13
2023-04-06T03:07:34.386Z,4.77
2023-04-06T03:08:37.465Z,7.00
2023-04-06T03:09:39.433Z,8.07
2023-04-06T03:10:42.263Z,4.10
2023-04-06T03:11:44.118Z,5.83
2023-04-06T03:12:48.410Z,3.50
2023-04-06T03:13:50.296Z,3.80
2023-04-06T03:14:53.141Z,3.33
2023-04-06T03:15:55.171Z,9.83
2023-04-06T03:16:58.054Z,4.20
2023-04-06T03:18:00.571Z,4.63
2023-04-06T03:19:03.661Z,6.53
2023-04-06T03:20:06.333Z,6.97
2023-04-06T03:21:09.258Z,7.97
2023-04-06T03:22:11.269Z,7.23
2023-04-06T03:23:14.106Z,4.33
2023-04-06T03:24:15.984Z,4.53
2023-04-06T03:25:18.786Z,6.17
2023-04-06T03:26:20.760Z,6.57
2023-04-06T03:27:23.526Z,6.93
2023-04-06T03:28:26.754Z,4.73
2023-04-06T03:29:29.575Z,3.47
2023-04-06T03:30:31.418Z,6.40
2023-04-06T03:31:34.312Z,6.33
2023-04-06T03:32:36.289Z,4.27
2023-04-06T03:33:39.139Z,3.63
2023-04-06T03:34:40.969Z,4.03
2023-04-06T03:35:43.881Z,3.30
2023-04-06T03:36:48.422Z,4.20
2023-04-06T03:37:56.251Z,3.63
2023-04-06T03:38:59.223Z,4.33
2023-04-06T03:40:01.286Z,5.27
2023-04-06T03:41:04.140Z,3.90
2023-04-06T03:42:06.192Z,4.90
2023-04-06T03:43:09.094Z,3.10
2023-04-06T03:44:12.343Z,2.80
2023-04-06T03:45:15.500Z,5.00
2023-04-06T03:46:17.361Z,2.87
2023-04-06T03:47:20.502Z,5.13
2023-04-06T03:48:22.343Z,3.00
2023-04-06T03:49:25.206Z,4.30
2023-04-06T03:50:27.387Z,2.20
2023-04-06T03:51:30.390Z,3.53
2023-04-06T03:52:32.496Z,4.27
2023-04-06T03:53:35.268Z,5.80
2023-04-06T03:54:37.352Z,2.50
2023-04-06T03:55:40.719Z,2.67
2023-04-06T03:56:42.592Z,2.93
2023-04-06T03:57:45.456Z,4.00
2023-04-06T03:58:50.419Z,2.63
2023-04-06T03:59:54.651Z,4.30
2023-04-06T04:00:56.494Z,3.97
2023-04-06T04:01:59.371Z,6.67
2023-04-06T04:03:02.758Z,4.63
2023-04-06T04:04:05.736Z,3.57
2023-04-06T04:05:08.188Z,5.10
2023-04-06T04:06:11.052Z,6.33
2023-04-06T04:07:12.861Z,7.30
2023-04-06T04:08:15.900Z,6.23
2023-04-06T04:09:17.715Z,4.07
2023-04-06T04:10:20.666Z,8.90
2023-04-06T04:11:22.500Z,8.40
2023-04-06T04:12:25.371Z,5.10
2023-04-06T04:13:27.187Z,3.70
2023-04-06T04:14:30.054Z,5.03
2023-04-06T04:15:33.427Z,6.07
2023-04-06T04:16:36.295Z,3.10
2023-04-06T04:17:38.152Z,4.17
2023-04-06T04:18:41.045Z,3.40
2023-04-06T04:19:42.922Z,12.10
2023-04-06T04:20:45.881Z,3.50
2023-04-06T04:21:49.094Z,4.80
2023-04-06T04:22:50.980Z,9.07
2023-04-06T04:23:54.563Z,4.23
2023-04-06T04:24:56.517Z,6.90
2023-04-06T04:25:59.792Z,3.63
2023-04-06T04:27:01.980Z,3.73
2023-04-06T04:28:05.070Z,3.27
2023-04-06T04:29:07.421Z,4.00
2023-04-06T04:30:11.157Z,4.53
2023-04-06T04:31:14.361Z,2.93
2023-04-06T04:32:17.574Z,2.90
2023-04-06T04:33:19.513Z,3.73
2023-04-06T04:34:24.973Z,10.33
2023-04-06T04:35:27.982Z,5.63
2023-04-06T04:36:30.841Z,2.87
2023-04-06T04:37:32.698Z,5.83
2023-04-06T04:38:35.567Z,2.73
2023-04-06T04:39:37.445Z,3.00
2023-04-06T04:40:40.535Z,6.17
2023-04-06T04:41:42.767Z,7.53
2023-04-06T04:42:46.108Z,6.00
2023-04-06T04:43:48.425Z,10.47
2023-04-06T04:44:51.603Z,6.20
2023-04-06T04:45:53.795Z,4.97
2023-04-06T04:46:58.846Z,5.57
2023-04-06T04:48:01.010Z,5.63
2023-04-06T04:49:04.030Z,4.53
2023-04-06T04:50:07.450Z,3.87
2023-04-06T04:51:10.684Z,3.43
2023-04-06T04:52:12.913Z,4.07
2023-04-06T04:53:16.457Z,6.27
2023-04-06T04:54:18.597Z,7.63
2023-04-06T04:55:22.787Z,6.27
2023-04-06T04:56:26.840Z,4.50
2023-04-06T04:57:29.865Z,5.53
2023-04-06T04:58:31.844Z,3.43
2023-04-06T04:59:35.106Z,9.07
2023-04-06T05:00:37.350Z,10.73
2023-04-06T05:01:53.676Z,9.97
2023-04-06T05:02:59.676Z,4.57
2023-04-06T05:04:01.945Z,8.47
2023-04-06T05:05:10.776Z,5.93
2023-04-06T05:06:14.724Z,6.50
2023-04-06T05:07:24.640Z,8.93
2023-04-06T05:08:31.370Z,6.70
2023-04-06T05:09:37.172Z,9.10
2023-04-06T05:10:48.831Z,10.00
2023-04-06T05:11:52.319Z,2.90
2023-04-06T05:13:01.307Z,3.30
2023-04-06T05:14:07.388Z,4.83
2023-04-06T05:16:04.897Z,11.70
2023-04-06T05:17:11.097Z,3.63
2023-04-06T05:18:15.984Z,3.57
2023-04-06T05:19:18.174Z,8.07
2023-04-06T05:20:24.453Z,4.47
2023-04-06T05:21:35.035Z,4.63
2023-04-06T05:22:42.247Z,5.03
2023-04-06T05:23:46.786Z,3.97
2023-04-06T05:24:52.862Z,4.67
2023-04-06T05:26:00.933Z,8.97
2023-04-06T05:27:09.962Z,3.97
2023-04-06T05:28:15.307Z,6.20
2023-04-06T05:29:47.886Z,5.30
2023-04-06T05:30:55.496Z,6.50
2023-04-06T05:32:01.791Z,6.43
2023-04-06T05:33:09.914Z,7.13
2023-04-06T05:34:14.673Z,13.57
2023-04-06T05:35:20.904Z,6.13
2023-04-06T05:36:38.212Z,4.60
2023-04-06T05:37:43.434Z,3.63
2023-04-06T05:38:51.049Z,15.50
2023-04-06T05:39:57.186Z,3.63
2023-04-06T05:41:04.758Z,4.83
2023-04-06T05:42:11.778Z,3.40
2023-04-06T05:43:14.832Z,5.37
2023-04-06T05:44:16.932Z,9.33
2023-04-06T05:45:23.498Z,9.60
2023-04-06T05:46:34.155Z,14.87
2023-04-06T05:47:47.154Z,7.63
2023-04-06T05:49:00.868Z,6.40
2023-04-06T05:50:08.544Z,4.23
2023-04-06T05:51:12.261Z,9.50
2023-04-06T05:52:17.549Z,9.03
2023-04-06T05:53:23.354Z,28.53
2023-04-06T05:54:33.137Z,7.77
2023-04-06T05:55:38.561Z,9.77
2023-04-06T05:56:44.745Z,11.83
2023-04-06T05:57:54.942Z,15.23
2023-04-06T05:59:05.747Z,6.33
2023-04-06T06:00:14.464Z,6.37
2023-04-06T06:01:18.822Z,7.30
2023-04-06T06:02:25.707Z,9.87
2023-04-06T06:03:29.822Z,7.60
2023-04-06T06:04:35.025Z,6.57
2023-04-06T06:05:39.361Z,8.77
2023-04-06T06:06:45.829Z,6.00
2023-04-06T06:07:51.257Z,8.40
2023-04-06T06:08:54.762Z,6.10
2023-04-06T06:10:07.287Z,4.47
2023-04-06T06:11:10.747Z,9.17
2023-04-06T06:12:18.242Z,7.30
2023-04-06T06:13:23.452Z,5.07
2023-04-06T06:14:30.415Z,9.00
2023-04-06T06:15:37.797Z,5.60
2023-04-06T06:16:44.746Z,15.33
2023-04-06T06:17:50.399Z,9.13
2023-04-06T06:19:01.487Z,11.73
2023-04-06T06:20:07.798Z,11.67
2023-04-06T06:21:21.705Z,8.83
2023-04-06T06:22:27.063Z,14.33
2023-04-06T06:23:31.991Z,13.07
2023-04-06T06:24:42.283Z,7.00
2023-04-06T06:25:49.150Z,11.50
2023-04-06T06:26:54.456Z,5.27
2023-04-06T06:27:59.758Z,6.70
2023-04-06T06:29:09.687Z,12.93
2023-04-06T06:30:17.226Z,3.73
2023-04-06T06:31:26.585Z,17.43
2023-04-06T06:32:39.008Z,9.27
2023-04-06T06:33:52.984Z,14.87
2023-04-06T06:35:12.334Z,8.07
2023-04-06T06:36:34.945Z,8.83
2023-04-06T06:37:47.560Z,8.47
2023-04-06T06:39:04.245Z,5.20
2023-04-06T06:40:23.656Z,13.43
2023-04-06T06:41:34.297Z,4.77
2023-04-06T06:42:38.025Z,13.67
2023-04-06T06:43:48.295Z,5.90
2023-04-06T06:44:58.301Z,10.37
2023-04-06T06:46:09.702Z,6.37
2023-04-06T06:47:18.860Z,9.73
2023-04-06T06:48:27.735Z,15.30
2023-04-06T06:49:33.052Z,4.40
2023-04-06T06:50:43.062Z,6.40
2023-04-06T06:51:59.148Z,6.57
2023-04-06T06:53:25.738Z,4.47
2023-04-06T06:54:51.421Z,6.40
2023-04-06T06:56:08.159Z,13.07
2023-04-06T06:57:53.079Z,5.57
2023-04-06T06:59:00.608Z,7.33
2023-04-06T07:00:21.282Z,5.10
2023-04-06T07:01:37.364Z,5.90
2023-04-06T07:02:56.585Z,8.63
2023-04-06T07:04:12.385Z,5.77
2023-04-06T07:05:57.515Z,12.63
2023-04-06T07:10:44.033Z,15.70
2023-04-06T07:12:30.856Z,15.80
2023-04-06T07:14:05.553Z,8.47
2023-04-06T07:15:41.913Z,9.63
2023-04-06T07:17:02.625Z,9.60
2023-04-06T07:18:48.124Z,10.90
2023-04-06T07:20:29.650Z,14.30
2023-04-06T07:37:04.390Z,12.18
2023-04-06T07:39:08.618Z,11.77
2023-04-06T07:46:37.969Z,11.30
2023-04-06T08:16:29.732Z,16.02
2023-04-06T08:17:33.168Z,8.32
2023-04-06T08:18:35.995Z,11.18
2023-04-06T08:19:38.416Z,10.93
2023-04-06T08:20:41.246Z,12.32
2023-04-06T08:21:43.541Z,14.45
2023-04-06T08:22:46.504Z,15.13
2023-04-06T08:23:48.352Z,10.38
2023-04-06T08:24:51.191Z,10.18
2023-04-06T08:25:55.110Z,10.50
2023-04-06T08:27:00.888Z,10.52
2023-04-06T08:28:03.143Z,10.48
2023-04-06T08:29:08.426Z,9.77
2023-04-06T08:30:11.934Z,10.57
2023-04-06T08:31:14.754Z,9.60
2023-04-06T08:32:18.996Z,11.00
2023-04-06T08:33:20.862Z,10.27
2023-04-06T08:34:23.843Z,8.85
2023-04-06T08:35:25.729Z,8.60
2023-04-06T08:36:28.619Z,8.05
2023-04-06T08:37:31.613Z,8.43
2023-04-06T08:38:33.424Z,10.23
2023-04-06T08:39:36.215Z,11.88
2023-04-06T08:40:38.568Z,14.05
2023-04-06T08:41:43.875Z,11.70
2023-04-06T08:42:51.650Z,9.82
2023-04-06T08:43:58.510Z,12.43
2023-04-06T08:45:01.646Z,11.05
2023-04-06T08:46:05.282Z,8.75
2023-04-06T08:47:07.153Z,8.93
2023-04-06T08:48:11.821Z,9.63
2023-04-06T08:49:13.613Z,7.47
2023-04-06T08:50:16.456Z,12.40
2023-04-06T08:51:18.834Z,12.38
2023-04-06T08:52:22.056Z,9.73
2023-04-06T08:53:24.415Z,9.63
2023-04-06T08:54:27.246Z,7.78
2023-04-06T08:55:30.320Z,8.15
2023-04-06T08:56:32.233Z,11.85
2023-04-06T08:57:35.184Z,10.18
2023-04-06T08:58:40.088Z,10.23
2023-04-06T08:59:43.385Z,10.10
2023-04-06T09:00:45.283Z,8.73
2023-04-06T09:01:48.589Z,9.95
2023-04-06T09:02:51.091Z,8.57
2023-04-06T09:03:58.528Z,8.32
2023-04-06T09:05:03.027Z,11.30
2023-04-06T09:06:05.489Z,9.43
2023-04-06T09:07:08.285Z,10.15
2023-04-06T09:08:11.166Z,9.32
2023-04-06T09:09:13.947Z,8.98
2023-04-06T09:10:16.533Z,9.05
2023-04-06T09:11:19.312Z,9.32
2023-04-06T09:12:25.435Z,7.97
2023-04-06T09:13:28.314Z,7.93
2023-04-06T09:14:39.428Z,8.23
2023-04-06T09:15:42.311Z,11.05
2023-04-06T09:16:46.304Z,10.23
2023-04-06T09:17:49.244Z,13.93
2023-04-06T09:18:52.486Z,10.55
2023-04-06T09:19:56.084Z,9.93
2023-04-06T09:21:00.492Z,8.45
2023-04-06T09:22:04.754Z,9.27
2023-04-06T09:23:07.571Z,12.68
2023-04-06T09:24:12.311Z,7.95
2023-04-06T09:25:20.673Z,12.32
2023-04-06T09:26:23.824Z,10.35
2023-04-06T09:27:32.127Z,10.50
2023-04-06T09:28:46.508Z,9.50
2023-04-06T09:29:48.290Z,7.88
2023-04-06T09:30:51.334Z,11.75
2023-04-06T09:31:54.224Z,19.25
2023-04-06T09:32:57.687Z,8.07
2023-04-06T09:34:01.631Z,8.57
2023-04-06T09:35:10.313Z,7.13
2023-04-06T09:36:14.600Z,9.38
2023-04-06T09:37:16.997Z,9.50
2023-04-06T09:38:19.852Z,11.30
2023-04-06T09:39:23.313Z,11.73
2023-04-06T09:40:26.147Z,16.48
2023-04-06T09:41:28.989Z,8.15
2023-04-06T09:42:31.839Z,10.80
2023-04-06T09:43:33.663Z,9.05
2023-04-06T09:44:36.522Z,10.85
2023-04-06T09:45:39.426Z,12.38
2023-04-06T09:46:58.043Z,12.90
2023-04-06T09:48:03.511Z,14.52
2023-04-06T09:49:05.718Z,10.80
2023-04-06T09:50:11.848Z,11.25
2023-04-06T09:51:15.950Z,8.80
2023-04-06T09:52:19.109Z,19.80
2023-04-06T09:53:22.889Z,13.63
2023-04-06T09:54:25.767Z,14.00
2023-04-06T09:55:32.836Z,16.00
2023-04-06T09:56:41.995Z,9.80
2023-04-06T09:57:49.066Z,12.75
2023-04-06T09:58:51.392Z,12.15
2023-04-06T10:00:04.557Z,14.95
2023-04-06T10:01:08.397Z,11.02
2023-04-06T10:02:18.376Z,12.95
2023-04-06T10:03:27.968Z,13.98
2023-04-06T10:04:39.255Z,13.90
2023-04-06T10:05:49.121Z,13.88
2023-04-06T10:06:53.500Z,12.73
2023-04-06T10:08:01.106Z,11.27
2023-04-06T10:09:05.424Z,15.82
2023-04-06T10:10:09.489Z,11.90
2023-04-06T10:11:12.010Z,12.18
2023-04-06T10:12:15.954Z,11.55
2023-04-06T10:13:18.927Z,10.55
2023-04-06T10:14:21.766Z,10.90
2023-04-06T10:15:23.564Z,14.40
2023-04-06T10:16:27.172Z,12.73
2023-04-06T10:17:29.169Z,15.98
2023-04-06T10:18:32.265Z,12.63
2023-04-06T10:19:44.212Z,10.88
2023-04-06T10:20:50.231Z,9.48
2023-04-06T10:21:56.377Z,10.13
2023-04-06T10:23:03.030Z,12.40
2023-04-06T10:24:11.686Z,11.55
2023-04-06T10:25:14.755Z,11.13
2023-04-06T10:26:17.771Z,10.73
2023-04-06T10:27:30.925Z,11.23
2023-04-06T10:28:35.403Z,13.57
2023-04-06T10:29:45.299Z,10.43
2023-04-06T10:30:48.506Z,11.77
2023-04-06T10:31:51.425Z,10.43
2023-04-06T10:32:53.265Z,13.98
2023-04-06T10:33:57.483Z,16.13
2023-04-06T10:35:06.727Z,18.17
2023-04-06T10:36:15.570Z,8.98
2023-04-06T10:37:21.534Z,11.80
2023-04-06T10:38:36.645Z,10.60
2023-04-06T10:39:48.980Z,11.95
2023-04-06T10:40:52.008Z,12.30
2023-04-06T10:41:53.907Z,9.65
2023-04-06T10:42:57.874Z,12.50
2023-04-06T10:44:00.465Z,14.65
2023-04-06T10:45:03.259Z,10.40
2023-04-06T10:46:07.548Z,14.13
2023-04-06T10:47:18.264Z,11.27
2023-04-06T10:48:21.439Z,11.82
2023-04-06T10:49:25.248Z,15.05
2023-04-06T10:50:31.868Z,12.35
2023-04-06T10:51:39.145Z,12.43
2023-04-06T10:52:41.899Z,12.60
2023-04-06T10:53:46.269Z,11.98
2023-04-06T10:54:50.480Z,11.23
2023-04-06T10:55:54.162Z,12.25
2023-04-06T10:56:57.108Z,12.02
2023-04-06T10:58:00.054Z,13.25
2023-04-06T10:59:02.903Z,10.30
2023-04-06T11:00:06.007Z,11.60
2023-04-06T11:01:08.844Z,11.15
2023-04-06T11:02:21.510Z,12.85
2023-04-06T11:03:24.304Z,11.57
2023-04-06T11:04:27.342Z,10.38
2023-04-06T11:05:29.194Z,11.20
2023-04-06T11:06:33.500Z,10.68
2023-04-06T11:07:36.796Z,13.13
2023-04-06T11:08:40.933Z,10.95
2023-04-06T11:09:46.820Z,13.68
2023-04-06T11:10:53.358Z,13.68
2023-04-06T11:11:58.263Z,9.88
2023-04-06T11:13:01.065Z,13.52
2023-04-06T11:14:04.094Z,14.15
2023-04-06T11:15:08.029Z,12.00
2023-04-06T11:16:15.445Z,14.40
2023-04-06T11:17:18.285Z,12.77
2023-04-06T11:18:21.587Z,11.63
2023-04-06T11:19:24.481Z,13.55
2023-04-06T11:20:26.370Z,17.55
2023-04-06T11:21:37.580Z,12.27
2023-04-06T11:22:52.219Z,10.65
2023-04-06T11:23:54.026Z,10.48
2023-04-06T11:25:06.973Z,14.40
2023-04-06T11:26:12.917Z,10.27
2023-04-06T11:27:16.879Z,13.00
2023-04-06T11:28:18.971Z,14.07
2023-04-06T11:29:22.908Z,12.68
2023-04-06T11:30:24.733Z,13.50
2023-04-06T11:31:27.972Z,10.32
2023-04-06T11:32:30.931Z,10.55
2023-04-06T11:33:36.610Z,14.13
2023-04-06T11:34:42.007Z,12.15
2023-04-06T11:35:44.917Z,10.57
2023-04-06T11:36:48.187Z,13.32
2023-04-06T11:37:52.837Z,13.10
2023-04-06T11:38:54.640Z,12.57
2023-04-06T11:39:58.133Z,10.73
2023-04-06T11:41:01.137Z,11.82
2023-04-06T11:42:04.974Z,15.27
2023-04-06T11:43:13.305Z,10.50
2023-04-06T11:44:16.206Z,12.55
2023-04-06T11:45:18.973Z,10.93
2023-04-06T11:46:20.827Z,12.02
2023-04-06T11:47:30.345Z,10.52
2023-04-06T11:48:32.557Z,10.15
2023-04-06T11:49:38.785Z,11.70
2023-04-06T11:50:40.764Z,9.77
2023-04-06T11:51:43.534Z,9.93
2023-04-06T11:52:46.536Z,11.15
2023-04-06T11:53:49.718Z,14.50
2023-04-06T11:54:53.552Z,11.23
2023-04-06T11:55:56.386Z,10.52
2023-04-06T11:56:58.312Z,8.07
2023-04-06T11:58:01.325Z,10.63
2023-04-06T11:59:04.226Z,11.75
2023-04-06T12:00:07.407Z,8.25
2023-04-06T12:01:10.214Z,12.30
2023-04-06T12:02:13.150Z,12.77
2023-04-06T12:03:16.571Z,15.30
2023-04-06T12:04:19.550Z,14.25
2023-04-06T12:05:22.442Z,16.50
2023-04-06T12:06:26.562Z,15.82
2023-04-06T12:07:30.602Z,12.10
2023-04-06T12:08:32.482Z,8.93
2023-04-06T12:09:37.622Z,8.63
2023-04-06T12:10:39.512Z,12.38
2023-04-06T12:11:42.980Z,9.45
2023-04-06T12:12:44.931Z,11.27
2023-04-06T12:13:47.786Z,8.30
2023-04-06T12:14:49.578Z,9.55
2023-04-06T12:15:52.615Z,12.52
2023-04-06T12:16:54.500Z,11.18
2023-04-06T12:17:57.434Z,8.80
2023-04-06T12:19:01.044Z,9.95
2023-04-06T12:20:09.428Z,9.75
2023-04-06T12:21:20.839Z,9.02
2023-04-06T12:22:23.776Z,10.02
2023-04-06T12:23:25.983Z,8.80
2023-04-06T12:24:29.642Z,11.40
2023-04-06T12:25:32.935Z,10.52
2023-04-06T12:26:36.832Z,10.00
2023-04-06T12:27:39.691Z,8.02
2023-04-06T12:28:42.770Z,8.55
2023-04-06T12:29:45.648Z,8.60
2023-04-06T12:30:48.478Z,9.68
2023-04-06T12:31:52.129Z,9.50
2023-04-06T12:32:54.034Z,11.48
2023-04-06T12:33:56.954Z,9.80
2023-04-06T12:34:59.810Z,10.02
2023-04-06T12:36:02.540Z,10.57
2023-04-06T12:37:04.329Z,8.10
2023-04-06T12:38:07.134Z,9.60
2023-04-06T12:39:10.170Z,9.82
2023-04-06T12:40:13.272Z,12.88
2023-04-06T12:41:16.581Z,10.95
2023-04-06T12:42:19.477Z,12.20
2023-04-06T12:43:21.473Z,11.85
2023-04-06T12:44:25.541Z,11.98
2023-04-06T12:45:29.571Z,8.77
2023-04-06T12:46:32.769Z,8.43
2023-04-06T12:47:34.685Z,8.55
2023-04-06T12:48:37.598Z,9.15
2023-04-06T12:49:40.655Z,9.27
2023-04-06T12:50:43.421Z,8.30
2023-04-06T12:51:46.347Z,8.23
2023-04-06T12:52:49.569Z,8.77
2023-04-06T12:53:51.407Z,12.43
2023-04-06T12:54:54.214Z,11.90
2023-04-06T12:55:56.576Z,9.02
2023-04-06T12:57:01.885Z,8.30
2023-04-06T12:58:03.974Z,10.43
2023-04-06T12:59:07.336Z,8.82
2023-04-06T13:00:10.936Z,12.35
2023-04-06T13:01:14.850Z,8.43
2023-04-06T13:02:18.252Z,9.23
2023-04-06T13:03:20.297Z,12.25
2023-04-06T13:04:23.178Z,9.35
2023-04-06T13:05:26.419Z,8.80
2023-04-06T13:06:30.223Z,9.43
2023-04-06T13:07:32.051Z,12.10
2023-04-06T13:08:34.850Z,8.15
2023-04-06T13:09:37.587Z,7.38
2023-04-06T13:10:39.382Z,9.15
2023-04-06T13:11:43.909Z,8.93
2023-04-06T13:12:48.193Z,11.85
2023-04-06T13:13:50.253Z,8.02
2023-04-06T13:14:53.577Z,8.77
2023-04-06T13:15:56.564Z,9.30
2023-04-06T13:16:59.678Z,7.57
2023-04-06T13:18:02.492Z,6.15
2023-04-06T13:19:05.323Z,8.13
2023-04-06T13:20:09.338Z,7.47
2023-04-06T13:21:16.959Z,8.77
2023-04-06T13:22:18.980Z,11.55
2023-04-06T13:23:21.778Z,12.65
2023-04-06T13:24:25.052Z,8.40
2023-04-06T13:25:33.529Z,9.52
2023-04-06T13:26:36.775Z,9.55
2023-04-06T13:27:40.530Z,8.20
2023-04-06T13:28:45.698Z,9.48
2023-04-06T13:29:47.904Z,8.00
2023-04-06T13:30:50.893Z,7.22
2023-04-06T13:31:53.747Z,8.48
2023-04-06T13:32:55.749Z,8.32
2023-04-06T13:33:58.538Z,7.22
2023-04-06T13:35:01.780Z,8.50
2023-04-06T13:36:04.309Z,7.40
2023-04-06T13:37:07.317Z,13.43
2023-04-06T13:38:10.327Z,9.45
2023-04-06T13:39:12.172Z,9.05
2023-04-06T13:40:18.814Z,11.25
2023-04-06T13:41:22.930Z,8.65
2023-04-06T13:42:25.944Z,8.32
2023-04-06T13:43:27.994Z,15.23
2023-04-06T13:44:32.236Z,13.27
2023-04-06T13:45:34.136Z,9.02
2023-04-06T13:46:36.978Z,8.63
2023-04-06T13:47:39.829Z,9.65
2023-04-06T13:48:41.983Z,9.27
2023-04-06T13:49:44.975Z,6.78
2023-04-06T13:50:46.886Z,8.52
2023-04-06T13:51:49.700Z,10.57
2023-04-06T13:52:52.534Z,10.13
2023-04-06T13:53:54.722Z,11.77
2023-04-06T13:54:57.476Z,6.68
2023-04-06T13:55:59.197Z,7.40
2023-04-06T13:57:01.937Z,8.68
2023-04-06T13:58:04.873Z,8.68
2023-04-06T13:59:06.952Z,8.75
2023-04-06T14:00:13.702Z,7.40
2023-04-06T14:01:16.643Z,8.27
2023-04-06T14:02:20.792Z,8.68
2023-04-06T14:03:23.906Z,7.57
2023-04-06T14:04:26.738Z,7.20
2023-04-06T14:05:32.432Z,10.13
2023-04-06T14:06:35.194Z,8.38
2023-04-06T14:07:38.462Z,9.60
2023-04-06T14:08:42.079Z,9.50
2023-04-06T14:09:44.755Z,9.63
2023-04-06T14:10:46.455Z,7.63
2023-04-06T14:11:49.089Z,9.02
2023-04-06T14:12:51.328Z,12.13
2023-04-06T14:13:55.769Z,12.10
2023-04-06T14:14:59.094Z,10.05
2023-04-06T14:16:03.245Z,7.50
2023-04-06T14:17:05.073Z,7.22
2023-04-06T14:18:07.842Z,11.55
2023-04-06T14:19:09.521Z,10.13
2023-04-06T14:20:15.719Z,8.35
2023-04-06T14:21:19.521Z,9.90
2023-04-06T14:22:22.258Z,7.93
2023-04-06T14:23:26.848Z,8.40
2023-04-06T14:24:29.505Z,7.00
2023-04-06T14:25:32.400Z,8.60
2023-04-06T14:26:35.662Z,8.60
2023-04-06T14:27:38.304Z,8.45
2023-04-06T14:28:41.107Z,6.85
2023-04-06T14:29:42.796Z,9.45
2023-04-06T14:30:45.610Z,8.25
2023-04-06T14:31:50.116Z,9.10
2023-04-06T14:32:51.868Z,8.13
2023-04-06T14:33:54.769Z,12.13
2023-04-06T14:34:56.765Z,9.75
2023-04-06T14:35:59.432Z,6.88
2023-04-06T14:37:01.200Z,11.65
2023-04-06T14:38:03.937Z,8.15
2023-04-06T14:39:05.980Z,9.27
2023-04-06T14:40:10.033Z,8.48
2023-04-06T14:41:17.208Z,12.20
2023-04-06T14:42:19.936Z,11.57
2023-04-06T14:43:22.710Z,8.32
2023-04-06T14:44:24.386Z,9.15
2023-04-06T14:45:27.079Z,9.27
2023-04-06T14:46:28.823Z,10.77
2023-04-06T14:47:33.950Z,10.50
2023-04-06T14:48:36.099Z,11.52
2023-04-06T14:49:38.946Z,8.05
2023-04-06T14:50:41.040Z,7.43
2023-04-06T14:51:43.740Z,7.50
2023-04-06T14:52:47.245Z,6.65
2023-04-06T14:53:50.022Z,7.30
2023-04-06T14:54:52.672Z,7.75
2023-04-06T14:55:54.937Z,7.40
2023-04-06T14:56:57.795Z,8.98
2023-04-06T14:57:59.482Z,7.00
2023-04-06T14:59:02.827Z,8.30
2023-04-06T15:00:08.834Z,10.93
2023-04-06T15:01:10.546Z,8.77
2023-04-06T15:02:13.388Z,8.85
2023-04-06T15:03:17.174Z,12.80
2023-04-06T15:04:20.141Z,11.23
2023-04-06T15:05:22.942Z,8.40
2023-04-06T15:06:24.613Z,8.40